Time;durP1;ratioP1;P1;durP2;ratioP2;P2;SDS_P1;SDS_P2;PMS_P1;PMS_P2;Temp;Humidity;BMP_temperature;BMP_pressure;BME280_temperature;BME280_humidity;BME280_pressure;Samples;Min_cycle;Max_cycle;Signal;HPM_P1;HPM_P2
2023/09/29 00:01:24;;;;;;;3.97;3.20;;;15.40;99.90;;;;;;5030596;28;20170;-78
2023/09/29 00:03:50;;;;;;;4.90;3.30;;;15.30;99.90;;;;;;5031865;28;20185;-78
2023/09/29 00:06:16;;;;;;;5.07;3.10;;;15.40;99.90;;;;;;5032020;28;20166;-78
2023/09/29 00:08:41;;;;;;;3.60;3.27;;;15.50;99.90;;;;;;5031981;28;20253;-78
2023/09/29 00:11:07;;;;;;;5.13;3.80;;;15.50;99.90;;;;;;5033050;28;20174;-78
2023/09/29 00:13:33;;;;;;;4.83;3.70;;;15.50;99.90;;;;;;5035752;28;20194;-79
2023/09/29 00:15:58;;;;;;;4.37;3.33;;;15.40;99.90;;;;;;5035107;28;20166;-78
2023/09/29 00:18:24;;;;;;;4.73;3.60;;;15.30;99.90;;;;;;5034614;28;20174;-78
2023/09/29 00:20:49;;;;;;;3.97;3.53;;;15.20;99.90;;;;;;5035747;28;20174;-78
2023/09/29 00:23:15;;;;;;;6.07;3.40;;;15.10;99.90;;;;;;5034451;28;20620;-78
2023/09/29 00:25:41;;;;;;;4.33;3.40;;;15.10;99.90;;;;;;5035757;28;20186;-78
2023/09/29 00:28:06;;;;;;;4.43;3.40;;;15.10;99.90;;;;;;5034430;28;20179;-78
2023/09/29 00:30:32;;;;;;;3.77;3.30;;;15.10;99.90;;;;;;5035551;28;20179;-78
2023/09/29 00:32:57;;;;;;;4.20;3.70;;;15.10;99.90;;;;;;5035761;28;20317;-78
2023/09/29 00:37:59;;;;;;;4.40;3.73;;;15.00;99.90;;;;;;5035584;28;20173;-78
2023/09/29 00:40:25;;;;;;;3.90;3.40;;;15.00;99.90;;;;;;5033932;28;20225;-78
2023/09/29 00:42:54;;;;;;;4.33;3.33;;;15.10;99.90;;;;;;5089058;23;20775;-82
2023/09/29 00:45:25;;;;;;;3.50;3.10;;;14.90;99.90;;;;;;5019836;28;20171;-82
2023/09/29 00:47:53;;;;;;;4.93;3.23;;;14.90;99.90;;;;;;5037321;28;20171;-82
2023/09/29 00:50:20;;;;;;;4.97;3.13;;;14.70;99.90;;;;;;5037702;28;20166;-82
2023/09/29 00:52:49;;;;;;;3.20;2.90;;;14.70;99.90;;;;;;5036965;28;20190;-84
2023/09/29 00:55:17;;;;;;;3.83;2.83;;;14.60;99.90;;;;;;5019094;28;20170;-82
2023/09/29 00:57:47;;;;;;;2.90;2.60;;;14.70;99.90;;;;;;5037249;28;20178;-82
2023/09/29 01:00:29;;;;;;;4.47;3.00;;;14.60;99.90;;;;;;5037274;28;20217;-82
2023/09/29 01:03:06;;;;;;;3.77;3.10;;;14.60;99.90;;;;;;5018879;28;20197;-82
2023/09/29 01:05:39;;;;;;;3.60;3.17;;;14.60;99.90;;;;;;5037172;28;20167;-83
2023/09/29 01:08:09;;;;;;;3.87;3.30;;;14.70;99.90;;;;;;5019349;28;20173;-83
2023/09/29 01:10:36;;;;;;;3.50;3.13;;;14.90;99.90;;;;;;5036735;28;20596;-82
2023/09/29 01:13:02;;;;;;;5.23;3.20;;;14.90;99.90;;;;;;5019167;28;20670;-82
2023/09/29 01:15:28;;;;;;;4.33;3.33;;;15.00;99.90;;;;;;5036737;28;20197;-82
2023/09/29 01:17:54;;;;;;;3.73;3.30;;;15.00;99.90;;;;;;5019560;28;20496;-82
2023/09/29 01:20:30;;;;;;;5.63;3.53;;;14.80;99.90;;;;;;5018923;28;20234;-83
2023/09/29 01:22:57;;;;;;;4.33;3.10;;;14.70;99.90;;;;;;5036094;28;20198;-82
2023/09/29 01:25:23;;;;;;;3.73;3.03;;;14.70;99.90;;;;;;5019118;28;20170;-82
2023/09/29 01:27:49;;;;;;;4.70;3.53;;;14.60;99.90;;;;;;5018980;28;20224;-83
2023/09/29 01:30:16;;;;;;;5.33;3.50;;;14.70;99.90;;;;;;5018861;28;20209;-82
2023/09/29 01:32:43;;;;;;;4.83;3.50;;;14.70;99.90;;;;;;5018926;28;20277;-83
2023/09/29 01:35:14;;;;;;;4.10;3.60;;;14.70;99.90;;;;;;5036656;28;20177;-82
2023/09/29 01:37:40;;;;;;;3.63;2.90;;;14.60;99.90;;;;;;5036743;28;20555;-83
2023/09/29 01:40:07;;;;;;;3.30;3.00;;;14.40;99.90;;;;;;5018464;28;20205;-82
2023/09/29 01:42:34;;;;;;;4.50;2.80;;;14.40;99.90;;;;;;5036682;28;20210;-82
2023/09/29 01:45:01;;;;;;;3.17;2.87;;;14.40;99.90;;;;;;5035339;28;20267;-82
2023/09/29 01:47:27;;;;;;;3.80;2.73;;;14.30;99.90;;;;;;5017675;28;20176;-82
2023/09/29 01:49:52;;;;;;;4.10;3.03;;;14.30;99.90;;;;;;5017178;28;20186;-82
2023/09/29 01:52:18;;;;;;;3.70;3.20;;;14.30;99.90;;;;;;5034739;28;20202;-82
2023/09/29 01:54:44;;;;;;;4.47;2.90;;;14.40;99.90;;;;;;5035450;28;20199;-83
2023/09/29 01:57:10;;;;;;;3.40;3.03;;;14.40;99.90;;;;;;5017250;28;20181;-83
2023/09/29 01:59:36;;;;;;;4.00;3.10;;;14.50;99.90;;;;;;5017327;28;20202;-84
2023/09/29 02:02:01;;;;;;;4.77;3.20;;;14.60;99.90;;;;;;5034815;28;20209;-83
2023/09/29 02:04:27;;;;;;;4.30;3.20;;;14.70;99.90;;;;;;5017179;28;20577;-82
2023/09/29 02:06:53;;;;;;;4.03;3.17;;;14.70;99.90;;;;;;5035085;28;20170;-82
2023/09/29 02:09:19;;;;;;;3.83;3.20;;;14.70;99.90;;;;;;5035415;28;20312;-83
2023/09/29 02:11:45;;;;;;;4.90;3.30;;;14.70;99.90;;;;;;5034524;28;20693;-82
2023/09/29 02:14:11;;;;;;;4.57;3.27;;;14.70;99.90;;;;;;5017323;28;20198;-82
2023/09/29 02:16:37;;;;;;;3.50;3.20;;;14.70;99.90;;;;;;5017204;28;20197;-83
2023/09/29 02:19:03;;;;;;;3.30;3.00;;;14.50;99.90;;;;;;5016706;28;20194;-82
2023/09/29 02:21:32;;;;;;;3.60;3.30;;;14.60;99.90;;;;;;5034835;28;20174;-83
2023/09/29 02:23:58;;;;;;;3.93;3.20;;;14.50;99.90;;;;;;5034629;28;20199;-83
2023/09/29 02:26:26;;;;;;;3.87;3.20;;;14.50;99.90;;;;;;5017235;28;20229;-82
2023/09/29 02:28:54;;;;;;;4.27;3.07;;;14.40;99.90;;;;;;5034275;28;20201;-83
2023/09/29 02:31:19;;;;;;;3.83;3.37;;;14.40;99.90;;;;;;5034978;28;20189;-82
2023/09/29 02:33:45;;;;;;;3.70;3.30;;;14.50;99.90;;;;;;5033633;28;20198;-83
2023/09/29 02:36:11;;;;;;;4.10;3.17;;;14.50;99.90;;;;;;5016729;28;20209;-83
2023/09/29 02:38:36;;;;;;;4.60;3.07;;;14.40;99.90;;;;;;5034266;28;20174;-82
2023/09/29 02:41:02;;;;;;;3.87;3.20;;;14.40;99.90;;;;;;5016274;28;20236;-82
2023/09/29 02:43:32;;;;;;;3.90;3.20;;;14.30;99.90;;;;;;4980851;28;1044295;-82
2023/09/29 02:45:58;;;;;;;3.00;2.80;;;14.30;99.90;;;;;;5035379;28;20246;-82
2023/09/29 02:48:24;;;;;;;2.30;2.10;;;14.20;99.90;;;;;;5017457;28;20268;-83
2023/09/29 02:50:50;;;;;;;3.53;2.50;;;14.00;99.90;;;;;;5017227;28;20214;-82
2023/09/29 02:53:16;;;;;;;3.40;2.67;;;14.00;99.90;;;;;;5034820;28;20194;-83
2023/09/29 02:55:43;;;;;;;2.97;2.67;;;14.00;99.90;;;;;;5034723;28;20183;-83
2023/09/29 02:58:09;;;;;;;3.93;2.83;;;13.90;99.90;;;;;;5034805;28;20174;-83
2023/09/29 03:00:35;;;;;;;3.37;3.03;;;13.90;99.90;;;;;;5017444;28;20216;-83
2023/09/29 03:03:03;;;;;;;4.03;2.87;;;14.00;99.90;;;;;;5035103;28;20199;-83
2023/09/29 03:05:28;;;;;;;3.27;2.90;;;14.00;99.90;;;;;;5034905;28;20178;-83
2023/09/29 03:07:57;;;;;;;3.60;3.30;;;13.90;99.90;;;;;;5034854;28;20178;-83
2023/09/29 03:10:26;;;;;;;3.30;3.00;;;13.90;99.90;;;;;;5035320;28;20182;-82
2023/09/29 03:12:53;;;;;;;4.13;2.90;;;14.00;99.90;;;;;;5034901;28;20198;-83
2023/09/29 03:15:21;;;;;;;3.80;2.80;;;14.10;99.90;;;;;;5017333;28;20170;-83
2023/09/29 03:17:46;;;;;;;3.27;2.90;;;14.20;99.90;;;;;;5034650;28;20178;-82
2023/09/29 03:20:14;;;;;;;3.23;2.93;;;14.30;99.90;;;;;;5017161;28;20206;-82
2023/09/29 03:22:41;;;;;;;3.40;2.80;;;14.30;99.90;;;;;;5034412;28;20285;-83
2023/09/29 03:25:11;;;;;;;3.20;2.90;;;14.30;99.90;;;;;;5016783;28;20650;-83
2023/09/29 03:27:38;;;;;;;3.13;2.83;;;14.40;99.90;;;;;;5016774;28;20220;-83
2023/09/29 03:30:05;;;;;;;4.90;3.40;;;14.40;99.90;;;;;;5016579;28;20646;-83
2023/09/29 03:32:31;;;;;;;6.37;3.37;;;14.40;99.90;;;;;;5016336;28;20194;-83
2023/09/29 03:34:57;;;;;;;3.50;3.10;;;14.40;99.90;;;;;;5034716;28;20177;-83
2023/09/29 03:37:23;;;;;;;3.63;2.97;;;14.20;99.90;;;;;;5016438;28;20181;-82
2023/09/29 03:39:48;;;;;;;3.40;2.87;;;14.10;99.90;;;;;;5016111;28;20208;-82
2023/09/29 03:42:16;;;;;;;3.50;3.20;;;14.00;99.90;;;;;;5034147;28;20253;-84
2023/09/29 03:44:44;;;;;;;5.20;3.00;;;13.90;99.90;;;;;;5016550;28;20262;-83
2023/09/29 03:47:11;;;;;;;4.67;3.50;;;14.00;99.90;;;;;;5016787;28;20639;-82
2023/09/29 03:49:38;;;;;;;3.47;3.17;;;14.10;99.90;;;;;;5015914;28;20653;-83
2023/09/29 03:52:06;;;;;;;4.23;3.60;;;14.10;99.90;;;;;;5016167;28;20242;-82
2023/09/29 03:54:32;;;;;;;3.90;3.10;;;14.10;99.90;;;;;;5016563;28;20201;-83
2023/09/29 03:56:58;;;;;;;3.53;2.70;;;14.10;99.90;;;;;;5016414;28;20182;-83
2023/09/29 03:59:24;;;;;;;3.13;2.83;;;14.00;99.90;;;;;;5016497;28;20198;-82
2023/09/29 04:01:50;;;;;;;3.50;3.20;;;14.00;99.90;;;;;;5034111;28;20228;-82
2023/09/29 04:04:16;;;;;;;2.93;2.70;;;14.00;99.90;;;;;;5015740;28;20753;-83
2023/09/29 04:06:41;;;;;;;3.37;3.07;;;14.00;99.90;;;;;;5033927;28;20177;-82
2023/09/29 04:09:07;;;;;;;3.73;2.80;;;14.00;99.90;;;;;;5016528;28;20233;-82
2023/09/29 04:11:33;;;;;;;3.70;3.00;;;14.10;99.90;;;;;;5033567;28;20265;-83
2023/09/29 04:13:59;;;;;;;2.90;2.60;;;14.00;99.90;;;;;;5033787;28;20198;-83
2023/09/29 04:16:24;;;;;;;3.93;2.73;;;14.00;99.90;;;;;;5034166;28;20178;-83
2023/09/29 04:18:50;;;;;;;3.80;3.10;;;13.90;99.90;;;;;;5015764;28;20204;-82
2023/09/29 04:21:15;;;;;;;4.67;3.30;;;13.80;99.90;;;;;;5015969;28;20257;-82
2023/09/29 04:23:44;;;;;;;2.87;2.67;;;13.90;99.90;;;;;;5015888;28;20193;-83
2023/09/29 04:26:20;;;;;;;3.73;3.07;;;14.00;99.90;;;;;;5034263;28;20178;-83
2023/09/29 04:28:46;;;;;;;3.27;2.80;;;14.10;99.90;;;;;;5033974;28;20253;-83
2023/09/29 04:31:14;;;;;;;3.73;2.90;;;14.10;99.90;;;;;;5034082;28;20167;-83
2023/09/29 04:33:41;;;;;;;3.70;3.10;;;14.20;99.90;;;;;;5033626;28;20194;-83
2023/09/29 04:36:06;;;;;;;5.47;3.00;;;14.30;99.90;;;;;;5015657;28;20170;-83
2023/09/29 04:38:33;;;;;;;3.53;3.23;;;14.40;99.90;;;;;;5033759;28;20224;-83
2023/09/29 04:40:58;;;;;;;4.47;3.07;;;14.40;99.90;;;;;;5033926;28;20170;-83
2023/09/29 04:43:24;;;;;;;3.87;3.20;;;14.40;99.90;;;;;;5033761;28;20250;-83
2023/09/29 04:45:50;;;;;;;8.53;3.60;;;14.40;99.90;;;;;;5015682;28;20209;-83
2023/09/29 04:48:15;;;;;;;4.47;3.60;;;14.50;99.90;;;;;;5015977;28;20220;-83
2023/09/29 04:50:42;;;;;;;4.17;3.67;;;14.40;99.90;;;;;;5015397;28;20220;-82
2023/09/29 04:53:07;;;;;;;6.57;4.30;;;14.40;99.90;;;;;;5015858;28;20229;-82
2023/09/29 04:55:33;;;;;;;4.13;3.70;;;14.40;99.90;;;;;;5015739;28;20186;-82
2023/09/29 04:57:59;;;;;;;4.10;3.53;;;14.40;99.90;;;;;;5018334;28;20182;-83
2023/09/29 05:00:25;;;;;;;3.33;3.00;;;14.30;99.90;;;;;;5019542;28;20194;-83
2023/09/29 05:02:50;;;;;;;4.60;2.70;;;14.30;99.90;;;;;;5037277;28;20198;-82
2023/09/29 05:05:16;;;;;;;3.63;3.03;;;14.30;99.90;;;;;;5019366;28;20166;-82
2023/09/29 05:07:44;;;;;;;4.20;3.50;;;14.10;99.90;;;;;;5037210;28;20167;-82
2023/09/29 05:10:13;;;;;;;5.37;3.80;;;14.10;99.90;;;;;;5019931;28;20174;-82
2023/09/29 05:12:40;;;;;;;4.10;3.00;;;14.10;99.90;;;;;;5036849;28;20285;-84
2023/09/29 05:15:06;;;;;;;5.00;3.60;;;14.10;99.90;;;;;;5037403;28;20170;-84
2023/09/29 05:17:32;;;;;;;4.50;3.10;;;14.10;99.90;;;;;;5019547;28;20174;-84
2023/09/29 05:19:58;;;;;;;3.90;3.17;;;14.10;99.90;;;;;;5018796;28;20209;-84
2023/09/29 05:22:23;;;;;;;3.57;3.27;;;14.20;99.90;;;;;;5018827;28;20222;-84
2023/09/29 05:24:49;;;;;;;4.13;3.13;;;14.20;99.90;;;;;;5018578;28;20167;-86
2023/09/29 05:27:15;;;;;;;4.23;3.13;;;14.30;99.90;;;;;;5018792;28;20170;-84
2023/09/29 05:29:41;;;;;;;3.93;3.10;;;14.50;99.90;;;;;;5036857;28;20297;-85
2023/09/29 05:32:06;;;;;;;4.73;3.63;;;14.60;99.90;;;;;;5018478;28;20205;-84
2023/09/29 05:34:32;;;;;;;4.40;3.37;;;14.60;99.90;;;;;;5036441;28;20175;-84
2023/09/29 05:36:58;;;;;;;4.80;3.60;;;14.60;99.90;;;;;;5036733;28;20227;-85
2023/09/29 05:39:23;;;;;;;4.67;3.50;;;14.70;99.90;;;;;;5036553;28;20229;-85
2023/09/29 05:41:49;;;;;;;3.83;3.30;;;14.70;99.90;;;;;;5036077;28;20182;-84
2023/09/29 05:44:15;;;;;;;4.23;3.77;;;14.80;99.90;;;;;;5018225;28;20217;-84
2023/09/29 05:46:41;;;;;;;4.47;3.40;;;14.80;99.90;;;;;;5036157;28;20183;-84
2023/09/29 05:49:09;;;;;;;3.87;3.53;;;14.80;99.90;;;;;;5036171;28;20178;-84
2023/09/29 05:51:35;;;;;;;5.80;3.60;;;14.80;99.90;;;;;;5018077;28;20214;-84
2023/09/29 05:54:02;;;;;;;4.13;3.60;;;14.80;99.90;;;;;;5018308;28;20564;-85
2023/09/29 05:56:29;;;;;;;5.03;3.23;;;14.80;99.90;;;;;;5035845;28;20183;-84
2023/09/29 05:58:55;;;;;;;4.27;3.30;;;14.80;99.90;;;;;;5017914;28;20213;-84
2023/09/29 06:01:22;;;;;;;4.03;3.40;;;14.80;99.90;;;;;;5018029;28;20178;-83
2023/09/29 06:03:47;;;;;;;3.40;3.10;;;14.80;99.90;;;;;;5036344;28;20200;-84
2023/09/29 06:06:13;;;;;;;5.67;3.10;;;14.90;99.90;;;;;;5018251;28;20615;-84
2023/09/29 06:08:39;;;;;;;5.03;3.03;;;14.90;99.90;;;;;;5016981;28;20224;-84
2023/09/29 06:11:05;;;;;;;3.60;3.00;;;14.90;99.90;;;;;;5035521;28;20622;-84
2023/09/29 06:13:31;;;;;;;3.83;3.50;;;15.00;99.90;;;;;;5017900;28;20228;-85
2023/09/29 06:15:57;;;;;;;3.90;3.30;;;15.10;99.90;;;;;;5017953;28;20220;-85
2023/09/29 06:18:23;;;;;;;4.20;3.40;;;15.10;99.90;;;;;;5036221;28;20189;-84
2023/09/29 06:20:48;;;;;;;5.30;4.03;;;15.20;99.90;;;;;;5017378;28;20222;-84
2023/09/29 06:23:14;;;;;;;4.00;3.63;;;15.20;99.90;;;;;;5017649;28;20626;-84
2023/09/29 06:25:40;;;;;;;4.10;3.70;;;15.20;99.90;;;;;;5017153;28;20184;-84
2023/09/29 06:28:05;;;;;;;5.60;3.57;;;15.20;99.90;;;;;;5017652;28;20261;-84
2023/09/29 06:30:31;;;;;;;5.90;3.80;;;15.20;99.90;;;;;;5035687;28;20174;-84
2023/09/29 06:32:57;;;;;;;3.97;3.30;;;15.20;99.90;;;;;;5017535;28;20186;-84
2023/09/29 06:35:22;;;;;;;3.60;3.30;;;15.30;99.90;;;;;;5017008;28;20725;-84
2023/09/29 06:37:48;;;;;;;4.17;3.27;;;15.20;99.90;;;;;;5017481;28;20184;-84
2023/09/29 06:40:14;;;;;;;4.07;3.53;;;15.20;99.90;;;;;;5017220;28;20202;-84
2023/09/29 06:42:39;;;;;;;5.20;3.70;;;15.20;99.90;;;;;;5070582;23;20575;-80
2023/09/29 06:45:07;;;;;;;3.53;3.23;;;15.20;99.90;;;;;;5033314;28;20202;-84
2023/09/29 06:47:33;;;;;;;4.10;3.63;;;15.20;99.90;;;;;;5036155;28;20186;-83
2023/09/29 06:49:59;;;;;;;4.97;3.40;;;15.30;99.90;;;;;;5018167;28;20166;-83
2023/09/29 06:52:25;;;;;;;4.23;3.30;;;15.40;99.90;;;;;;5035487;28;20262;-83
2023/09/29 06:54:51;;;;;;;5.40;3.33;;;15.40;99.90;;;;;;5035784;28;20195;-84
2023/09/29 06:57:16;;;;;;;4.40;3.20;;;15.50;99.90;;;;;;5033491;28;20599;-83
2023/09/29 06:59:42;;;;;;;5.13;3.57;;;15.50;99.90;;;;;;5015574;28;20687;-83
2023/09/29 07:02:07;;;;;;;5.67;3.83;;;15.60;99.90;;;;;;5032940;28;20723;-83
2023/09/29 07:04:33;;;;;;;4.57;3.60;;;15.70;99.90;;;;;;5032933;28;20194;-83
2023/09/29 07:06:59;;;;;;;3.97;3.47;;;15.70;99.90;;;;;;5032938;28;20228;-83
2023/09/29 07:09:26;;;;;;;4.17;3.70;;;15.70;99.90;;;;;;5032811;28;20174;-83
2023/09/29 07:11:51;;;;;;;4.03;3.63;;;15.80;99.90;;;;;;5032569;28;20174;-83
2023/09/29 07:14:17;;;;;;;6.00;4.17;;;15.80;99.90;;;;;;5015015;28;20202;-83
2023/09/29 07:16:49;;;;;;;4.43;3.80;;;15.90;99.90;;;;;;5033098;28;20185;-83
2023/09/29 07:19:16;;;;;;;5.40;4.20;;;16.00;99.90;;;;;;5014904;28;20201;-84
2023/09/29 07:21:41;;;;;;;6.37;4.50;;;16.00;99.90;;;;;;5032830;28;20518;-83
2023/09/29 07:24:07;;;;;;;4.83;4.33;;;16.00;99.90;;;;;;5014991;28;20197;-83
2023/09/29 07:26:33;;;;;;;7.17;4.47;;;16.10;99.90;;;;;;5032618;28;20178;-83
2023/09/29 07:29:01;;;;;;;5.93;4.37;;;16.10;99.90;;;;;;5015448;28;20182;-83
2023/09/29 07:31:34;;;;;;;5.53;4.60;;;16.10;99.90;;;;;;5032233;28;20178;-84
2023/09/29 07:34:00;;;;;;;6.47;4.77;;;16.10;99.90;;;;;;5014570;28;20209;-83
2023/09/29 07:36:29;;;;;;;5.17;4.67;;;16.20;99.90;;;;;;5014723;28;20178;-83
2023/09/29 07:38:54;;;;;;;5.50;5.00;;;16.30;99.90;;;;;;5032260;28;20170;-85
2023/09/29 07:41:20;;;;;;;5.50;5.00;;;16.40;99.90;;;;;;5032341;28;20227;-83
2023/09/29 07:43:46;;;;;;;5.57;4.80;;;16.50;99.90;;;;;;5032142;28;20201;-84
2023/09/29 07:46:11;;;;;;;5.90;4.43;;;16.70;99.90;;;;;;5014550;28;20181;-83
2023/09/29 07:48:38;;;;;;;7.07;5.03;;;16.80;99.90;;;;;;5014585;28;20668;-83
2023/09/29 07:51:04;;;;;;;5.87;4.47;;;16.90;99.90;;;;;;5014404;28;20171;-83
2023/09/29 07:53:29;;;;;;;5.80;4.43;;;17.00;99.90;;;;;;5032081;28;20190;-83
2023/09/29 07:55:55;;;;;;;5.20;4.70;;;17.00;99.90;;;;;;5014652;28;20184;-83
2023/09/29 07:58:21;;;;;;;6.00;4.70;;;17.20;99.90;;;;;;5014431;28;20182;-83
2023/09/29 08:00:46;;;;;;;6.57;4.57;;;17.40;99.90;;;;;;5014386;28;20229;-83
2023/09/29 08:03:12;;;;;;;5.30;4.10;;;17.60;99.90;;;;;;5032851;28;20193;-83
2023/09/29 08:05:37;;;;;;;6.83;4.60;;;17.90;99.90;;;;;;5014382;28;20166;-84
2023/09/29 08:08:03;;;;;;;6.80;4.40;;;18.00;99.90;;;;;;5031918;28;20170;-83
2023/09/29 08:10:29;;;;;;;4.67;4.10;;;18.10;99.90;;;;;;5032023;28;20264;-83
2023/09/29 08:12:55;;;;;;;5.73;4.10;;;18.20;99.90;;;;;;5035866;28;20190;-83
2023/09/29 08:15:21;;;;;;;4.50;4.07;;;18.40;99.90;;;;;;5032320;28;20744;-83
2023/09/29 08:17:47;;;;;;;7.07;4.27;;;18.60;99.90;;;;;;5032017;28;20182;-84
2023/09/29 08:20:14;;;;;;;4.20;3.80;;;18.90;99.90;;;;;;5031842;28;20194;-83
2023/09/29 08:22:40;;;;;;;4.90;4.40;;;19.30;99.90;;;;;;5031498;28;20169;-83
2023/09/29 08:25:07;;;;;;;5.05;4.25;;;19.80;99.90;;;;;;5032160;28;20265;-85
2023/09/29 08:27:34;;;;;;;6.28;4.00;;;20.00;99.90;;;;;;5032909;28;20652;-83
2023/09/29 08:30:01;;;;;;;4.07;3.25;;;20.20;82.30;;;;;;5014845;28;20182;-83
2023/09/29 08:32:27;;;;;;;5.47;3.00;;;20.60;75.10;;;;;;5016167;28;20594;-83
2023/09/29 08:34:52;;;;;;;3.85;2.90;;;21.10;99.90;;;;;;5035656;28;20709;-83
2023/09/29 08:37:18;;;;;;;3.47;2.88;;;21.50;1.00;;;;;;5035563;28;20197;-85
2023/09/29 08:39:44;;;;;;;4.15;2.90;;;21.60;99.90;;;;;;5035882;28;20198;-82
2023/09/29 08:42:26;;;;;;;4.30;2.70;;;21.60;1.00;;;;;;5035775;28;20170;-83
2023/09/29 08:44:53;;;;;;;3.35;2.70;;;21.60;1.00;;;;;;5035690;28;20232;-83
2023/09/29 08:47:23;;;;;;;6.00;2.42;;;21.60;99.90;;;;;;5035674;28;20257;-83
2023/09/29 08:49:49;;;;;;;4.60;2.97;;;21.60;24.20;;;;;;5017926;28;20178;-83
2023/09/29 08:52:17;;;;;;;3.35;2.85;;;21.50;1.00;;;;;;5017812;28;20206;-83
2023/09/29 08:54:44;;;;;;;3.53;2.53;;;21.50;99.90;;;;;;5035428;28;20190;-83
2023/09/29 08:57:10;;;;;;;3.55;2.60;;;21.80;1.00;;;;;;5017570;28;20178;-83
2023/09/29 08:59:39;;;;;;;5.10;2.90;;;22.30;44.50;;;;;;5035513;28;20198;-83
2023/09/29 09:02:04;;;;;;;4.22;3.17;;;22.60;1.00;;;;;;5035145;28;20178;-82
2023/09/29 09:04:30;;;;;;;4.07;2.72;;;22.60;99.90;;;;;;5035217;28;20285;-83
2023/09/29 09:06:56;;;;;;;3.75;2.67;;;22.50;1.00;;;;;;5035477;28;20170;-83
2023/09/29 09:09:23;;;;;;;5.22;2.75;;;22.40;1.00;;;;;;5017531;28;20198;-83
2023/09/29 09:11:49;;;;;;;4.45;2.88;;;22.30;1.00;;;;;;5017806;28;20182;-83
2023/09/29 09:14:15;;;;;;;3.38;2.67;;;22.20;99.90;;;;;;5035226;28;20194;-83
2023/09/29 09:16:41;;;;;;;3.92;2.85;;;22.10;99.90;;;;;;5035214;28;20300;-83
2023/09/29 09:19:14;;;;;;;3.80;2.70;;;22.10;99.90;;;;;;5017274;28;20202;-83
2023/09/29 09:21:42;;;;;;;3.42;2.70;;;22.20;1.00;;;;;;5017357;28;20554;-82
2023/09/29 09:24:20;;;;;;;3.63;2.90;;;22.30;99.90;;;;;;5017481;28;20247;-83
2023/09/29 09:26:46;;;;;;;4.65;2.97;;;22.40;1.00;;;;;;5035180;28;20244;-82
2023/09/29 09:29:16;;;;;;;3.55;3.22;;;22.50;1.00;;;;;;5017251;28;20184;-82
2023/09/29 09:31:51;;;;;;;4.35;3.08;;;22.70;1.00;;;;;;5035011;28;20270;-82
2023/09/29 09:34:16;;;;;;;6.72;2.90;;;23.00;99.90;;;;;;5017107;28;20212;-83
2023/09/29 09:36:55;;;;;;;4.25;3.20;;;23.30;1.00;;;;;;5017058;28;20189;-82
2023/09/29 09:39:22;;;;;;;4.00;3.28;;;23.40;99.90;;;;;;5034595;28;20280;-83
2023/09/29 09:41:52;;;;;;;5.05;3.00;;;23.40;1.00;;;;;;5016632;28;20658;-82
2023/09/29 09:44:19;;;;;;;5.32;3.15;;;23.30;99.90;;;;;;5016964;28;20736;-82
2023/09/29 09:46:53;;;;;;;3.70;2.92;;;23.10;1.00;;;;;;5034782;28;20162;-83
2023/09/29 09:49:24;;;;;;;5.53;3.28;;;23.00;1.00;;;;;;5035255;28;20308;-82
2023/09/29 09:51:52;;;;;;;3.83;2.97;;;22.80;1.00;;;;;;5017276;28;20236;-82
2023/09/29 09:54:26;;;;;;;5.72;3.05;;;22.60;1.00;;;;;;5017057;28;20198;-82
2023/09/29 09:57:00;;;;;;;5.03;3.20;;;22.50;99.90;;;;;;5017056;28;20204;-82
2023/09/29 09:59:28;;;;;;;4.18;3.00;;;22.50;99.90;;;;;;5016997;28;20292;-83
2023/09/29 10:01:55;;;;;;;3.58;2.88;;;22.50;99.90;;;;;;5017019;28;20214;-82
2023/09/29 10:04:26;;;;;;;3.50;3.15;;;22.50;99.90;;;;;;5034481;28;20190;-83
2023/09/29 10:06:55;;;;;;;3.20;2.70;;;22.50;99.90;;;;;;5016893;28;20177;-82
2023/09/29 10:09:21;;;;;;;6.32;3.30;;;22.60;1.00;;;;;;5034505;28;20741;-82
2023/09/29 10:12:00;;;;;;;3.88;3.13;;;22.60;1.00;;;;;;5034307;28;20174;-82
2023/09/29 10:14:26;;;;;;;3.67;2.75;;;22.60;31.00;;;;;;5016736;28;20752;-82
2023/09/29 10:17:05;;;;;;;4.50;3.28;;;22.60;1.00;;;;;;5016628;28;20178;-82
2023/09/29 10:19:37;;;;;;;4.25;3.00;;;22.60;32.60;;;;;;5016229;28;20201;-82
2023/09/29 10:22:03;;;;;;;4.07;3.22;;;22.60;99.90;;;;;;5034080;28;20716;-83
2023/09/29 10:24:29;;;;;;;4.95;2.85;;;22.60;99.90;;;;;;5033889;28;20194;-82
2023/09/29 10:26:59;;;;;;;3.25;2.83;;;22.50;99.90;;;;;;5034286;28;20555;-82
2023/09/29 10:29:30;;;;;;;5.35;2.97;;;22.50;99.90;;;;;;5033991;28;20178;-82
2023/09/29 10:32:15;;;;;;;6.20;2.90;;;22.60;70.50;;;;;;5033904;28;20194;-82
2023/09/29 10:34:41;;;;;;;3.53;2.67;;;22.50;99.90;;;;;;5033933;28;20202;-82
2023/09/29 10:37:09;;;;;;;4.55;3.10;;;22.60;99.90;;;;;;5033954;28;20722;-82
2023/09/29 10:39:36;;;;;;;3.70;3.17;;;22.60;99.90;;;;;;5033656;28;20285;-82
2023/09/29 10:42:14;;;;;;;4.50;3.30;;;22.50;99.90;;;;;;5015894;28;20178;-84
2023/09/29 10:44:52;;;;;;;4.30;3.00;;;22.70;99.90;;;;;;5033986;28;20208;-83
2023/09/29 10:47:34;;;;;;;3.72;2.70;;;23.00;99.90;;;;;;5016228;28;20220;-82
2023/09/29 10:50:10;;;;;;;3.58;3.15;;;23.30;1.00;;;;;;5033477;28;20167;-79
2023/09/29 10:52:36;;;;;;;3.95;3.05;;;23.40;1.00;;;;;;5015594;28;20177;-82
2023/09/29 10:55:04;;;;;;;4.53;3.33;;;23.30;1.00;;;;;;5033008;28;20175;-82
2023/09/29 10:57:30;;;;;;;5.38;2.88;;;23.20;1.00;;;;;;5033891;28;20189;-84
2023/09/29 11:00:02;;;;;;;3.85;3.17;;;23.00;1.00;;;;;;5015697;28;20201;-82
2023/09/29 11:02:30;;;;;;;4.97;3.10;;;22.80;99.90;;;;;;5033376;28;20162;-82
2023/09/29 11:04:57;;;;;;;4.28;3.30;;;22.60;1.00;;;;;;5033327;28;20213;-82
2023/09/29 11:07:29;;;;;;;4.22;3.40;;;22.50;1.00;;;;;;5033204;28;20178;-82
2023/09/29 11:09:55;;;;;;;4.60;3.45;;;22.50;1.00;;;;;;5033485;28;20186;-83
2023/09/29 11:12:23;;;;;;;3.55;3.03;;;22.60;99.90;;;;;;5015471;28;20177;-82
2023/09/29 11:14:48;;;;;;;4.93;3.10;;;22.60;1.00;;;;;;5015496;28;20193;-82
2023/09/29 11:17:14;;;;;;;5.57;3.45;;;22.60;99.90;;;;;;5015528;28;20185;-82
2023/09/29 11:19:50;;;;;;;4.75;3.15;;;22.60;99.90;;;;;;5015554;28;20248;-82
2023/09/29 11:22:18;;;;;;;4.43;3.10;;;22.80;99.90;;;;;;5015935;28;20193;-82
2023/09/29 11:24:44;;;;;;;3.50;3.20;;;22.90;99.90;;;;;;5015597;28;20196;-82
2023/09/29 11:27:11;;;;;;;5.03;3.30;;;23.10;1.00;;;;;;5033394;28;20174;-82
2023/09/29 11:29:37;;;;;;;5.18;2.97;;;23.50;1.00;;;;;;5033118;28;20170;-84
2023/09/29 11:32:04;;;;;;;3.60;3.15;;;23.70;1.00;;;;;;5032854;28;20243;-82
2023/09/29 11:34:29;;;;;;;3.33;2.95;;;23.70;99.90;;;;;;5032853;28;20621;-82
2023/09/29 11:36:55;;;;;;;3.83;3.38;;;23.80;1.00;;;;;;5033426;28;20224;-82
2023/09/29 11:39:22;;;;;;;6.55;3.20;;;23.80;99.90;;;;;;5032915;28;20194;-83
2023/09/29 11:41:48;;;;;;;3.92;3.30;;;23.80;1.00;;;;;;5032649;28;20167;-82
2023/09/29 11:44:15;;;;;;;3.60;2.88;;;23.70;1.00;;;;;;5014864;28;20206;-82
2023/09/29 11:46:40;;;;;;;3.35;3.05;;;23.60;99.90;;;;;;5033070;28;20197;-82
2023/09/29 11:49:07;;;;;;;3.58;3.13;;;23.50;1.00;;;;;;5015384;28;20198;-82
2023/09/29 11:51:34;;;;;;;4.32;3.15;;;23.70;1.00;;;;;;5014952;28;20170;-82
2023/09/29 11:54:00;;;;;;;3.72;2.83;;;23.90;9.20;;;;;;5032984;28;20182;-82
2023/09/29 11:56:26;;;;;;;3.42;2.95;;;24.20;1.00;;;;;;5015256;28;20173;-82
2023/09/29 11:58:53;;;;;;;5.03;3.10;;;24.50;1.00;;;;;;5015171;28;20277;-83
2023/09/29 12:01:19;;;;;;;3.53;2.92;;;24.50;1.00;;;;;;5014834;28;20178;-82
2023/09/29 12:03:45;;;;;;;4.50;3.20;;;24.70;99.90;;;;;;5014932;28;20193;-82
2023/09/29 12:06:11;;;;;;;5.95;3.25;;;24.80;99.90;;;;;;5032087;28;20167;-82
2023/09/29 12:08:36;;;;;;;3.67;3.03;;;24.90;1.00;;;;;;5015117;28;20732;-82
2023/09/29 12:11:07;;;;;;;4.65;3.28;;;25.00;1.00;;;;;;5032716;28;20524;-82
2023/09/29 12:13:35;;;;;;;5.03;3.33;;;25.10;1.00;;;;;;5014931;28;20281;-82
2023/09/29 12:16:04;;;;;;;4.95;3.30;;;25.40;1.00;;;;;;5014927;28;20174;-79
2023/09/29 12:18:32;;;;;;;3.30;3.00;;;25.50;1.00;;;;;;5032710;28;20182;-82
2023/09/29 12:20:57;;;;;;;3.42;3.13;;;25.70;1.00;;;;;;5014725;28;20234;-82
2023/09/29 12:23:23;;;;;;;3.28;2.97;;;25.70;99.90;;;;;;5014836;28;20218;-81
2023/09/29 12:25:48;;;;;;;5.93;3.15;;;25.60;1.00;;;;;;5032855;28;20224;-82
2023/09/29 12:28:15;;;;;;;4.25;3.38;;;25.70;1.00;;;;;;5032485;28;20527;-82
2023/09/29 12:30:43;;;;;;;4.55;3.45;;;25.70;99.90;;;;;;5032184;28;20171;-82
2023/09/29 12:33:10;;;;;;;3.50;3.20;;;25.80;99.90;;;;;;5032382;28;20248;-80
2023/09/29 12:35:36;;;;;;;5.43;3.03;;;25.90;99.90;;;;;;5032755;28;20193;-82
2023/09/29 12:38:01;;;;;;;4.90;3.00;;;26.00;99.90;;;;;;5014751;28;20659;-82
2023/09/29 12:40:27;;;;;;;4.90;3.15;;;26.20;99.90;;;;;;5014614;28;20202;-81
2023/09/29 12:42:53;;;;;;;5.32;3.20;;;26.20;99.90;;;;;;5014301;28;20194;-82
2023/09/29 12:45:23;;;;;;;5.13;3.20;;;25.60;1.00;;;;;;5102291;23;20230;-84
2023/09/29 12:47:49;;;;;;;4.90;3.22;;;25.40;1.00;;;;;;5053964;28;20312;-84
2023/09/29 12:50:16;;;;;;;4.53;3.30;;;25.00;1.00;;;;;;5053852;28;20178;-83